createdAt,value
2022-12-31T16:25:40.680Z,55.66
2022-12-31T16:28:06.843Z,54.81
2022-12-31T16:30:33.018Z,54.99
2022-12-31T16:32:59.282Z,54.78
2022-12-31T16:35:25.579Z,54.21
2022-12-31T16:37:51.791Z,52.56
2022-12-31T16:40:18.041Z,52.36
2022-12-31T16:42:44.712Z,52.54
2022-12-31T16:45:10.881Z,54.61
2022-12-31T16:47:37.126Z,56.44
2022-12-31T16:50:03.369Z,55.56
2022-12-31T16:52:29.521Z,55.60
2022-12-31T16:54:55.721Z,57.18
2022-12-31T16:57:21.908Z,58.13
2022-12-31T16:59:48.063Z,56.60
2022-12-31T17:02:14.529Z,57.70
2022-12-31T17:04:46.909Z,58.04
2022-12-31T17:07:15.941Z,56.45
2022-12-31T17:09:42.102Z,55.08
2022-12-31T17:12:08.277Z,56.35
2022-12-31T17:14:34.459Z,54.66
2022-12-31T17:17:03.071Z,54.59
2022-12-31T17:19:29.584Z,54.73
2022-12-31T17:21:55.814Z,53.97
2022-12-31T17:24:21.973Z,53.05
2022-12-31T17:26:48.190Z,51.81
2022-12-31T17:29:14.375Z,50.57
2022-12-31T17:31:40.647Z,50.18
2022-12-31T17:34:06.849Z,49.95
2022-12-31T17:36:33.040Z,50.30
2022-12-31T17:38:59.264Z,51.89
2022-12-31T17:41:25.480Z,54.25
2022-12-31T17:43:51.652Z,55.31
2022-12-31T17:46:17.830Z,55.23
2022-12-31T17:48:44.004Z,54.11
2022-12-31T17:51:10.173Z,55.02
2022-12-31T17:53:36.399Z,54.13
2022-12-31T17:56:02.560Z,54.39
2022-12-31T17:58:29.895Z,54.23
2022-12-31T18:00:56.315Z,57.05
2022-12-31T18:03:22.471Z,55.99
2022-12-31T18:05:48.625Z,55.25
2022-12-31T18:08:14.791Z,57.47
2022-12-31T18:10:40.950Z,57.77
2022-12-31T18:13:07.104Z,55.66
2022-12-31T18:15:33.263Z,54.66
2022-12-31T18:17:59.412Z,54.86
2022-12-31T18:20:25.583Z,53.61
2022-12-31T18:22:51.838Z,53.53
2022-12-31T18:25:17.991Z,55.83
2022-12-31T18:27:44.164Z,55.02
2022-12-31T18:30:10.325Z,56.01
2022-12-31T18:32:36.504Z,54.45
2022-12-31T18:35:02.634Z,54.54
2022-12-31T18:37:28.797Z,54.79
2022-12-31T18:39:54.974Z,54.57
2022-12-31T18:42:21.128Z,54.23
2022-12-31T18:44:47.281Z,54.96
2022-12-31T18:47:13.555Z,54.91
2022-12-31T18:49:39.707Z,55.61
2022-12-31T18:52:05.897Z,52.94
2022-12-31T18:54:32.045Z,54.10
2022-12-31T18:56:58.209Z,54.16
2022-12-31T18:59:24.371Z,52.59
2022-12-31T19:01:50.615Z,53.10
2022-12-31T19:04:20.042Z,55.84
2022-12-31T19:06:49.269Z,56.65
2022-12-31T19:09:43.606Z,55.44
2022-12-31T19:12:01.559Z,56.08
2022-12-31T19:14:27.803Z,57.25
2022-12-31T19:16:53.972Z,57.24
2022-12-31T19:19:20.154Z,55.96
2022-12-31T19:21:46.314Z,54.31
2022-12-31T19:24:12.473Z,56.16
2022-12-31T19:26:43.242Z,57.37
2022-12-31T19:29:09.805Z,56.95
2022-12-31T19:31:36.005Z,57.62
2022-12-31T19:34:02.192Z,57.98
2022-12-31T19:36:28.354Z,57.42
2022-12-31T19:38:54.492Z,54.92
2022-12-31T19:41:20.664Z,54.53
2022-12-31T19:43:46.805Z,52.83
2022-12-31T19:46:13.031Z,53.52
2022-12-31T19:48:39.211Z,53.19
2022-12-31T19:51:05.393Z,53.88
2022-12-31T19:53:31.555Z,55.64
2022-12-31T19:55:57.687Z,56.94
2022-12-31T19:58:23.844Z,58.43
2022-12-31T20:00:56.826Z,57.91
2022-12-31T20:03:24.584Z,56.18
2022-12-31T20:05:50.750Z,54.45
2022-12-31T20:08:16.922Z,52.64
2022-12-31T20:10:43.083Z,52.10
2022-12-31T20:13:09.317Z,52.12
2022-12-31T20:15:35.584Z,53.99
2022-12-31T20:18:04.703Z,55.21
2022-12-31T20:20:31.038Z,57.40
2022-12-31T20:22:57.270Z,56.44
2022-12-31T20:25:23.434Z,55.31
2022-12-31T20:27:49.613Z,54.30
2022-12-31T20:30:15.764Z,52.32
2022-12-31T20:32:41.961Z,52.83
2022-12-31T20:35:08.160Z,54.50
2022-12-31T20:37:34.357Z,54.66
2022-12-31T20:40:00.512Z,54.91
2022-12-31T20:42:26.689Z,56.41
2022-12-31T20:44:52.886Z,56.20
2022-12-31T20:47:19.040Z,56.43
2022-12-31T20:50:10.378Z,56.37
2022-12-31T20:52:31.316Z,57.24
2022-12-31T20:54:57.480Z,57.63
2022-12-31T20:57:24.948Z,57.64
2022-12-31T20:59:52.716Z,56.90
2022-12-31T21:02:21.366Z,54.91
2022-12-31T21:04:48.136Z,53.80
2022-12-31T21:07:14.499Z,54.21
2022-12-31T21:09:40.655Z,53.13
2022-12-31T21:12:06.836Z,53.56
2022-12-31T21:14:33.009Z,54.23
2022-12-31T21:16:59.170Z,54.17
2022-12-31T21:19:25.347Z,55.21
2022-12-31T21:21:51.495Z,55.69
2022-12-31T21:24:23.491Z,55.35
2022-12-31T21:26:50.303Z,53.97
2022-12-31T21:29:16.585Z,53.24
2022-12-31T21:31:42.728Z,53.97
2022-12-31T21:34:08.910Z,55.25
2022-12-31T21:36:35.186Z,52.55
2022-12-31T21:39:01.355Z,53.72
2022-12-31T21:41:32.938Z,53.82
2022-12-31T21:44:00.140Z,52.89
2022-12-31T21:46:26.378Z,54.02
2022-12-31T21:48:52.532Z,54.07
2022-12-31T21:51:18.745Z,55.82
2022-12-31T21:53:48.242Z,56.44
